sensor_id;sensor_type;location;lat;lon;timestamp;P1;durP1;ratioP1;P2;durP2;ratioP2
63959;SDS011;50136;51.374;0.096;2022-10-24T00:02:55;16.65;;;2.90;;
63959;SDS011;50136;51.374;0.096;2022-10-24T00:12:59;11.07;;;1.80;;
63959;SDS011;50136;51.374;0.096;2022-10-24T00:23:00;23.55;;;3.47;;
63959;SDS011;50136;51.374;0.096;2022-10-24T00:33:04;23.15;;;4.85;;
63959;SDS011;50136;51.374;0.096;2022-10-24T00:43:09;21.13;;;3.95;;
63959;SDS011;50136;51.374;0.096;2022-10-24T00:53:16;19.00;;;3.72;;
63959;SDS011;50136;51.374;0.096;2022-10-24T01:03:19;17.00;;;4.60;;
63959;SDS011;50136;51.374;0.096;2022-10-24T01:13:24;16.23;;;3.92;;
63959;SDS011;50136;51.374;0.096;2022-10-24T01:23:43;18.67;;;4.47;;
63959;SDS011;50136;51.374;0.096;2022-10-24T01:34:02;11.95;;;3.13;;
63959;SDS011;50136;51.374;0.096;2022-10-24T01:44:09;10.18;;;2.47;;
63959;SDS011;50136;51.374;0.096;2022-10-24T01:54:19;21.77;;;3.13;;
63959;SDS011;50136;51.374;0.096;2022-10-24T02:04:21;8.00;;;2.17;;
63959;SDS011;50136;51.374;0.096;2022-10-24T02:14:29;10.00;;;1.88;;
63959;SDS011;50136;51.374;0.096;2022-10-24T02:24:36;6.93;;;1.70;;
63959;SDS011;50136;51.374;0.096;2022-10-24T02:34:43;6.55;;;1.00;;
63959;SDS011;50136;51.374;0.096;2022-10-24T02:44:47;4.47;;;1.55;;
63959;SDS011;50136;51.374;0.096;2022-10-24T02:54:51;5.80;;;1.38;;
63959;SDS011;50136;51.374;0.096;2022-10-24T03:04:53;3.67;;;1.00;;
63959;SDS011;50136;51.374;0.096;2022-10-24T03:14:56;3.72;;;1.40;;
63959;SDS011;50136;51.374;0.096;2022-10-24T03:24:58;2.90;;;1.00;;
63959;SDS011;50136;51.374;0.096;2022-10-24T03:35:01;3.92;;;1.30;;
63959;SDS011;50136;51.374;0.096;2022-10-24T03:45:04;2.72;;;1.00;;
63959;SDS011;50136;51.374;0.096;2022-10-24T03:55:09;4.03;;;1.33;;
63959;SDS011;50136;51.374;0.096;2022-10-24T04:05:11;5.18;;;1.23;;
63959;SDS011;50136;51.374;0.096;2022-10-24T04:15:14;3.45;;;1.48;;
63959;SDS011;50136;51.374;0.096;2022-10-24T04:25:16;8.88;;;1.58;;
63959;SDS011;50136;51.374;0.096;2022-10-24T04:35:20;9.00;;;1.90;;
63959;SDS011;50136;51.374;0.096;2022-10-24T04:45:22;2.80;;;1.10;;
63959;SDS011;50136;51.374;0.096;2022-10-24T04:55:25;3.95;;;1.00;;
63959;SDS011;50136;51.374;0.096;2022-10-24T05:05:27;2.38;;;0.90;;
63959;SDS011;50136;51.374;0.096;2022-10-24T05:15:31;5.82;;;1.27;;
63959;SDS011;50136;51.374;0.096;2022-10-24T05:25:33;3.22;;;0.82;;
63959;SDS011;50136;51.374;0.096;2022-10-24T05:35:36;4.63;;;0.82;;
63959;SDS011;50136;51.374;0.096;2022-10-24T05:45:38;2.72;;;0.98;;
63959;SDS011;50136;51.374;0.096;2022-10-24T05:55:41;5.43;;;0.98;;
63959;SDS011;50136;51.374;0.096;2022-10-24T06:05:43;8.32;;;1.10;;
63959;SDS011;50136;51.374;0.096;2022-10-24T06:15:47;4.28;;;1.13;;
63959;SDS011;50136;51.374;0.096;2022-10-24T06:25:48;0.88;;;0.68;;
63959;SDS011;50136;51.374;0.096;2022-10-24T06:35:52;2.53;;;0.90;;
63959;SDS011;50136;51.374;0.096;2022-10-24T06:45:54;5.75;;;0.82;;
63959;SDS011;50136;51.374;0.096;2022-10-24T06:55:59;3.35;;;0.95;;
63959;SDS011;50136;51.374;0.096;2022-10-24T07:06:04;7.60;;;1.83;;
63959;SDS011;50136;51.374;0.096;2022-10-24T07:16:08;6.43;;;1.65;;
63959;SDS011;50136;51.374;0.096;2022-10-24T07:26:11;5.60;;;1.77;;
63959;SDS011;50136;51.374;0.096;2022-10-24T07:36:17;11.43;;;1.23;;
63959;SDS011;50136;51.374;0.096;2022-10-24T07:46:19;5.65;;;1.13;;
63959;SDS011;50136;51.374;0.096;2022-10-24T07:56:23;23.75;;;2.17;;
63959;SDS011;50136;51.374;0.096;2022-10-24T08:06:27;7.40;;;2.05;;
63959;SDS011;50136;51.374;0.096;2022-10-24T08:16:32;4.75;;;1.15;;
63959;SDS011;50136;51.374;0.096;2022-10-24T08:26:34;5.80;;;1.30;;
63959;SDS011;50136;51.374;0.096;2022-10-24T08:36:37;9.15;;;2.08;;
63959;SDS011;50136;51.374;0.096;2022-10-24T08:46:41;15.00;;;3.88;;
63959;SDS011;50136;51.374;0.096;2022-10-24T08:56:49;10.00;;;3.07;;
63959;SDS011;50136;51.374;0.096;2022-10-24T09:06:54;12.35;;;4.90;;
63959;SDS011;50136;51.374;0.096;2022-10-24T09:16:59;8.30;;;4.43;;
63959;SDS011;50136;51.374;0.096;2022-10-24T09:27:04;9.10;;;4.80;;
63959;SDS011;50136;51.374;0.096;2022-10-24T09:47:53;10.43;;;2.43;;
63959;SDS011;50136;51.374;0.096;2022-10-24T09:57:59;4.93;;;1.55;;
63959;SDS011;50136;51.374;0.096;2022-10-24T10:08:02;3.63;;;1.83;;
63959;SDS011;50136;51.374;0.096;2022-10-24T10:18:19;7.55;;;1.55;;
63959;SDS011;50136;51.374;0.096;2022-10-24T10:28:31;7.25;;;1.88;;
63959;SDS011;50136;51.374;0.096;2022-10-24T10:38:42;8.18;;;2.42;;
63959;SDS011;50136;51.374;0.096;2022-10-24T10:48:56;6.90;;;1.80;;
63959;SDS011;50136;51.374;0.096;2022-10-24T10:59:10;10.10;;;2.17;;
63959;SDS011;50136;51.374;0.096;2022-10-24T11:09:32;6.35;;;1.90;;
63959;SDS011;50136;51.374;0.096;2022-10-24T11:19:42;4.72;;;1.33;;
63959;SDS011;50136;51.374;0.096;2022-10-24T11:29:54;9.13;;;2.00;;
63959;SDS011;50136;51.374;0.096;2022-10-24T11:40:02;6.00;;;1.95;;
63959;SDS011;50136;51.374;0.096;2022-10-24T11:50:32;8.45;;;2.53;;
63959;SDS011;50136;51.374;0.096;2022-10-24T12:00:40;4.00;;;1.38;;
63959;SDS011;50136;51.374;0.096;2022-10-24T12:11:01;12.60;;;2.27;;
63959;SDS011;50136;51.374;0.096;2022-10-24T12:21:14;8.27;;;1.67;;
63959;SDS011;50136;51.374;0.096;2022-10-24T12:31:27;8.45;;;1.88;;
63959;SDS011;50136;51.374;0.096;2022-10-24T12:41:37;8.35;;;2.35;;
63959;SDS011;50136;51.374;0.096;2022-10-24T12:51:44;4.68;;;1.58;;
63959;SDS011;50136;51.374;0.096;2022-10-24T13:01:46;25.17;;;5.28;;
63959;SDS011;50136;51.374;0.096;2022-10-24T13:11:58;10.30;;;2.65;;
63959;SDS011;50136;51.374;0.096;2022-10-24T13:22:23;21.55;;;3.83;;
63959;SDS011;50136;51.374;0.096;2022-10-24T13:32:30;19.30;;;4.93;;
63959;SDS011;50136;51.374;0.096;2022-10-24T13:42:34;19.80;;;4.57;;
63959;SDS011;50136;51.374;0.096;2022-10-24T13:52:43;16.08;;;3.03;;
63959;SDS011;50136;51.374;0.096;2022-10-24T14:02:50;12.77;;;2.58;;
63959;SDS011;50136;51.374;0.096;2022-10-24T14:12:55;12.32;;;2.08;;
63959;SDS011;50136;51.374;0.096;2022-10-24T14:22:57;18.20;;;4.65;;
63959;SDS011;50136;51.374;0.096;2022-10-24T14:43:24;16.30;;;3.40;;
63959;SDS011;50136;51.374;0.096;2022-10-24T14:53:29;16.50;;;3.97;;
63959;SDS011;50136;51.374;0.096;2022-10-24T15:03:31;17.27;;;3.40;;
63959;SDS011;50136;51.374;0.096;2022-10-24T15:13:42;10.25;;;2.55;;
63959;SDS011;50136;51.374;0.096;2022-10-24T15:24:00;14.15;;;2.63;;
63959;SDS011;50136;51.374;0.096;2022-10-24T15:34:03;9.05;;;2.22;;
63959;SDS011;50136;51.374;0.096;2022-10-24T15:44:08;15.02;;;3.17;;
63959;SDS011;50136;51.374;0.096;2022-10-24T16:04:20;13.70;;;2.20;;
63959;SDS011;50136;51.374;0.096;2022-10-24T16:14:24;10.88;;;2.50;;
63959;SDS011;50136;51.374;0.096;2022-10-24T16:24:26;15.20;;;2.75;;
63959;SDS011;50136;51.374;0.096;2022-10-24T16:34:30;12.52;;;2.80;;
63959;SDS011;50136;51.374;0.096;2022-10-24T16:44:32;11.52;;;2.35;;
63959;SDS011;50136;51.374;0.096;2022-10-24T16:54:35;22.35;;;5.65;;
63959;SDS011;50136;51.374;0.096;2022-10-24T17:04:37;17.13;;;3.20;;
63959;SDS011;50136;51.374;0.096;2022-10-24T17:14:41;11.30;;;2.83;;
63959;SDS011;50136;51.374;0.096;2022-10-24T17:24:43;16.42;;;3.20;;
63959;SDS011;50136;51.374;0.096;2022-10-24T17:34:47;13.80;;;3.88;;
63959;SDS011;50136;51.374;0.096;2022-10-24T17:44:49;16.17;;;4.38;;
63959;SDS011;50136;51.374;0.096;2022-10-24T17:54:53;22.42;;;5.82;;
63959;SDS011;50136;51.374;0.096;2022-10-24T18:04:55;22.10;;;5.32;;
63959;SDS011;50136;51.374;0.096;2022-10-24T18:14:58;18.52;;;6.35;;
63959;SDS011;50136;51.374;0.096;2022-10-24T18:25:00;22.45;;;4.53;;
63959;SDS011;50136;51.374;0.096;2022-10-24T18:35:04;22.95;;;4.22;;
63959;SDS011;50136;51.374;0.096;2022-10-24T18:45:08;20.42;;;7.47;;
63959;SDS011;50136;51.374;0.096;2022-10-24T18:55:15;23.58;;;7.97;;
63959;SDS011;50136;51.374;0.096;2022-10-24T19:05:20;26.63;;;4.55;;
63959;SDS011;50136;51.374;0.096;2022-10-24T19:15:25;24.48;;;5.72;;
63959;SDS011;50136;51.374;0.096;2022-10-24T19:25:27;16.33;;;4.85;;
63959;SDS011;50136;51.374;0.096;2022-10-24T19:35:31;17.70;;;4.72;;
63959;SDS011;50136;51.374;0.096;2022-10-24T19:45:34;22.10;;;6.53;;
63959;SDS011;50136;51.374;0.096;2022-10-24T19:55:41;15.05;;;5.30;;
63959;SDS011;50136;51.374;0.096;2022-10-24T20:05:43;18.13;;;3.58;;
63959;SDS011;50136;51.374;0.096;2022-10-24T20:15:51;15.15;;;6.47;;
63959;SDS011;50136;51.374;0.096;2022-10-24T20:25:56;24.45;;;7.25;;
63959;SDS011;50136;51.374;0.096;2022-10-24T20:36:00;14.63;;;3.45;;
63959;SDS011;50136;51.374;0.096;2022-10-24T20:46:03;27.10;;;8.88;;
63959;SDS011;50136;51.374;0.096;2022-10-24T20:56:08;17.95;;;4.57;;
63959;SDS011;50136;51.374;0.096;2022-10-24T21:06:15;12.73;;;3.88;;
63959;SDS011;50136;51.374;0.096;2022-10-24T21:16:19;12.95;;;2.55;;
63959;SDS011;50136;51.374;0.096;2022-10-24T21:26:21;13.23;;;4.18;;
63959;SDS011;50136;51.374;0.096;2022-10-24T21:36:25;18.98;;;5.32;;
63959;SDS011;50136;51.374;0.096;2022-10-24T21:46:27;15.60;;;4.03;;
63959;SDS011;50136;51.374;0.096;2022-10-24T21:56:31;13.15;;;2.92;;
63959;SDS011;50136;51.374;0.096;2022-10-24T22:06:34;12.98;;;2.78;;
63959;SDS011;50136;51.374;0.096;2022-10-24T22:16:38;9.65;;;3.80;;
63959;SDS011;50136;51.374;0.096;2022-10-24T22:26:40;15.00;;;2.45;;
63959;SDS011;50136;51.374;0.096;2022-10-24T22:36:51;14.20;;;2.38;;
63959;SDS011;50136;51.374;0.096;2022-10-24T22:47:09;13.60;;;2.40;;
63959;SDS011;50136;51.374;0.096;2022-10-24T22:57:27;12.23;;;2.22;;
63959;SDS011;50136;51.374;0.096;2022-10-24T23:07:31;5.43;;;1.55;;
63959;SDS011;50136;51.374;0.096;2022-10-24T23:17:41;11.32;;;1.83;;
63959;SDS011;50136;51.374;0.096;2022-10-24T23:27:45;8.38;;;2.00;;
63959;SDS011;50136;51.374;0.096;2022-10-24T23:37:53;9.88;;;2.20;;
63959;SDS011;50136;51.374;0.096;2022-10-24T23:48:01;10.73;;;2.20;;
63959;SDS011;50136;51.374;0.096;2022-10-24T23:58:17;4.53;;;1.67;;
